Time;durP1;ratioP1;P1;durP2;ratioP2;P2;SDS_P1;SDS_P2;PMS_P1;PMS_P2;Temp;Humidity;BMP_temperature;BMP_pressure;BME280_temperature;BME280_humidity;BME280_pressure;Samples;Min_cycle;Max_cycle;Signal;HPM_P1;HPM_P2
2021/04/28 00:02:09;;;;;;;6.25;2.00;;;3.80;69.40;;;;;;4995650;28;20033;-66
2021/04/28 00:04:35;;;;;;;4.90;1.75;;;3.80;69.10;;;;;;4997462;28;20513;-66
2021/04/28 00:07:03;;;;;;;6.80;1.90;;;3.80;68.90;;;;;;4996444;28;20022;-66
2021/04/28 00:09:29;;;;;;;2.83;1.70;;;3.80;68.70;;;;;;4997062;28;20088;-65
2021/04/28 00:11:56;;;;;;;15.18;1.85;;;3.80;69.00;;;;;;4996506;28;20040;-66
2021/04/28 00:14:22;;;;;;;3.63;1.95;;;3.80;69.00;;;;;;4998725;28;20022;-66
2021/04/28 00:16:48;;;;;;;4.85;1.95;;;3.80;68.80;;;;;;4999043;28;20033;-65
2021/04/28 00:19:13;;;;;;;4.22;1.52;;;3.80;68.70;;;;;;4996249;28;20026;-66
2021/04/28 00:21:39;;;;;;;6.38;1.70;;;3.80;68.40;;;;;;4996469;28;20546;-66
2021/04/28 00:24:05;;;;;;;6.18;2.03;;;3.70;68.20;;;;;;4997621;28;20426;-66
2021/04/28 00:26:31;;;;;;;3.28;1.88;;;3.70;68.10;;;;;;4990089;28;20061;-66
2021/04/28 00:28:56;;;;;;;5.03;1.85;;;3.70;68.10;;;;;;4990100;28;20451;-66
2021/04/28 00:31:22;;;;;;;3.80;1.80;;;3.60;67.60;;;;;;4996755;28;20029;-66
2021/04/28 00:33:49;;;;;;;4.30;1.70;;;3.70;67.50;;;;;;4996651;28;20033;-66
2021/04/28 00:36:14;;;;;;;7.10;1.70;;;3.60;67.20;;;;;;4998946;28;20066;-66
2021/04/28 00:38:40;;;;;;;5.15;1.70;;;3.60;67.70;;;;;;4991675;28;20474;-66
2021/04/28 00:41:08;;;;;;;4.15;1.80;;;3.60;67.30;;;;;;4993702;28;20105;-66
2021/04/28 00:43:35;;;;;;;3.45;1.67;;;3.60;67.30;;;;;;4997901;28;20026;-66
2021/04/28 00:46:01;;;;;;;3.38;1.45;;;3.60;66.80;;;;;;4993142;28;20045;-66
2021/04/28 00:48:27;;;;;;;4.28;1.90;;;3.60;66.70;;;;;;4998736;28;20380;-67
2021/04/28 00:50:53;;;;;;;5.07;1.52;;;3.50;66.50;;;;;;5000368;28;20044;-67
2021/04/28 00:53:21;;;;;;;4.90;1.80;;;3.40;66.40;;;;;;4995484;28;20065;-67
2021/04/28 00:55:48;;;;;;;4.40;2.00;;;3.40;66.60;;;;;;4998191;28;20320;-67
2021/04/28 00:58:14;;;;;;;2.63;1.30;;;3.40;66.40;;;;;;5000058;28;20022;-67
2021/04/28 01:00:41;;;;;;;3.42;1.80;;;3.40;66.10;;;;;;4999245;28;20510;-67
2021/04/28 01:03:07;;;;;;;5.80;1.55;;;3.40;66.00;;;;;;4995143;28;20099;-67
2021/04/28 01:05:34;;;;;;;3.97;1.90;;;3.30;66.30;;;;;;5003291;28;20026;-66
2021/04/28 01:08:00;;;;;;;4.30;1.80;;;3.30;65.90;;;;;;4999748;28;20049;-66
2021/04/28 01:10:32;;;;;;;3.63;2.03;;;3.30;66.10;;;;;;5000663;28;20065;-67
2021/04/28 01:12:58;;;;;;;2.97;1.50;;;3.20;66.30;;;;;;4996176;28;20026;-67
2021/04/28 01:15:27;;;;;;;2.60;1.60;;;3.10;66.10;;;;;;5000915;28;20052;-67
2021/04/28 01:17:55;;;;;;;2.88;1.63;;;3.10;66.10;;;;;;5003899;28;20178;-67
2021/04/28 01:20:22;;;;;;;4.57;1.88;;;3.10;65.90;;;;;;4999464;28;20043;-67
2021/04/28 01:22:49;;;;;;;4.55;1.83;;;3.10;65.50;;;;;;4999866;28;20060;-67
2021/04/28 01:25:18;;;;;;;4.68;1.92;;;3.10;65.30;;;;;;5000574;28;20069;-67
2021/04/28 01:27:53;;;;;;;2.63;1.30;;;3.10;66.00;;;;;;5001350;28;20222;-67
2021/04/28 01:30:19;;;;;;;4.63;1.80;;;3.10;65.10;;;;;;4994055;28;20109;-67
2021/04/28 01:32:48;;;;;;;2.80;1.55;;;3.10;65.30;;;;;;5000145;28;20208;-67
2021/04/28 01:35:19;;;;;;;3.22;1.63;;;3.10;65.10;;;;;;5002385;28;20108;-67
2021/04/28 01:37:46;;;;;;;2.10;1.38;;;3.10;65.10;;;;;;4998007;28;20030;-66
2021/04/28 01:40:16;;;;;;;4.00;1.83;;;3.00;64.60;;;;;;5004295;28;20132;-67
2021/04/28 01:42:43;;;;;;;4.40;1.58;;;3.00;64.90;;;;;;5003560;28;20273;-67
2021/04/28 01:45:11;;;;;;;5.50;1.75;;;2.90;64.80;;;;;;5008361;28;20029;-64
2021/04/28 01:47:39;;;;;;;4.05;1.60;;;2.90;65.00;;;;;;4991283;28;20026;-65
2021/04/28 01:50:06;;;;;;;4.25;1.88;;;2.90;64.70;;;;;;4995727;28;20025;-65
2021/04/28 01:52:31;;;;;;;2.80;1.58;;;2.90;64.70;;;;;;5000918;28;20034;-65
2021/04/28 01:54:57;;;;;;;2.30;1.55;;;2.90;64.70;;;;;;4995738;28;20024;-66
2021/04/28 01:57:26;;;;;;;3.30;1.75;;;2.80;64.70;;;;;;4996551;28;20032;-66
2021/04/28 01:59:52;;;;;;;3.38;1.42;;;2.80;64.70;;;;;;5004469;28;20033;-68
2021/04/28 02:02:18;;;;;;;2.30;1.50;;;2.80;65.10;;;;;;4992743;28;20506;-67
2021/04/28 02:04:44;;;;;;;3.58;1.50;;;2.80;65.00;;;;;;4998922;28;20249;-68
2021/04/28 02:07:10;;;;;;;3.78;1.70;;;2.70;65.10;;;;;;5004508;28;20041;-67
2021/04/28 02:09:36;;;;;;;3.47;1.52;;;2.70;65.20;;;;;;5000470;28;20025;-67
2021/04/28 02:12:02;;;;;;;3.60;1.90;;;2.70;65.50;;;;;;4997493;28;20081;-67
2021/04/28 02:14:31;;;;;;;3.72;1.88;;;2.60;65.60;;;;;;4999123;28;20109;-65
2021/04/28 02:16:58;;;;;;;4.75;1.80;;;2.60;65.90;;;;;;4996550;28;20075;-65
2021/04/28 02:19:23;;;;;;;3.33;1.65;;;2.60;65.70;;;;;;4993504;28;20154;-65
2021/04/28 02:21:53;;;;;;;3.05;1.90;;;2.60;65.80;;;;;;4998975;28;20041;-65
2021/04/28 02:24:19;;;;;;;6.53;2.00;;;2.70;65.90;;;;;;4991752;28;20034;-65
2021/04/28 02:26:45;;;;;;;4.05;1.75;;;2.60;65.50;;;;;;4996748;28;20040;-66
2021/04/28 02:29:12;;;;;;;4.20;2.10;;;2.60;65.80;;;;;;4997791;28;20108;-66
2021/04/28 02:31:38;;;;;;;2.45;1.48;;;2.60;66.10;;;;;;5003365;28;20399;-67
2021/04/28 02:34:05;;;;;;;3.05;1.80;;;2.50;66.50;;;;;;4991391;28;20058;-67
2021/04/28 02:36:39;;;;;;;3.80;1.98;;;2.50;66.20;;;;;;5003623;28;20087;-66
2021/04/28 02:39:46;;;;;;;4.63;2.10;;;2.50;66.20;;;;;;4998712;28;20068;-66
2021/04/28 02:42:12;;;;;;;3.45;1.75;;;2.50;66.50;;;;;;5000291;28;20092;-66
2021/04/28 02:44:38;;;;;;;2.45;1.67;;;2.40;66.70;;;;;;4992236;28;20073;-65
2021/04/28 02:47:07;;;;;;;4.97;2.00;;;2.40;67.10;;;;;;4994073;28;20040;-66
2021/04/28 02:49:33;;;;;;;4.45;1.83;;;2.40;66.90;;;;;;4998016;28;20138;-66
2021/04/28 02:52:01;;;;;;;5.13;2.22;;;2.40;67.20;;;;;;5001241;28;20022;-65
2021/04/28 02:54:27;;;;;;;4.10;2.00;;;2.50;67.30;;;;;;4998132;28;20088;-66
2021/04/28 02:56:54;;;;;;;3.75;2.13;;;2.50;68.00;;;;;;4993654;28;20343;-66
2021/04/28 02:59:20;;;;;;;4.40;1.70;;;2.50;67.90;;;;;;4997105;28;20040;-65
2021/04/28 03:01:48;;;;;;;4.95;2.13;;;2.50;67.90;;;;;;5000970;28;20053;-66
2021/04/28 03:04:16;;;;;;;4.15;1.98;;;2.60;68.10;;;;;;4995318;28;20033;-65
2021/04/28 03:06:43;;;;;;;4.47;2.30;;;2.60;67.90;;;;;;4998957;28;20579;-65
2021/04/28 03:09:09;;;;;;;6.65;2.15;;;2.50;67.80;;;;;;5002106;28;20172;-65
2021/04/28 03:11:37;;;;;;;3.53;2.33;;;2.50;68.30;;;;;;4999467;28;20514;-66
2021/04/28 03:14:03;;;;;;;5.30;2.15;;;2.40;68.40;;;;;;4993200;28;20037;-65
2021/04/28 03:16:31;;;;;;;3.58;2.10;;;2.40;68.40;;;;;;5000712;28;20022;-65
2021/04/28 03:19:01;;;;;;;3.92;1.92;;;2.30;68.90;;;;;;4992947;28;20037;-66
2021/04/28 03:21:29;;;;;;;5.87;1.80;;;2.30;69.30;;;;;;5003506;28;20100;-65
2021/04/28 03:23:55;;;;;;;5.07;1.92;;;2.30;69.20;;;;;;4994977;28;20027;-66
2021/04/28 03:26:23;;;;;;;5.85;2.10;;;2.30;69.40;;;;;;5001594;28;20133;-66
2021/04/28 03:28:49;;;;;;;5.85;2.40;;;2.20;69.60;;;;;;4993859;28;20458;-66
2021/04/28 03:31:14;;;;;;;7.38;2.30;;;2.20;69.80;;;;;;5001873;28;20041;-66
2021/04/28 03:33:40;;;;;;;3.40;1.65;;;2.10;70.30;;;;;;4994961;28;20036;-66
2021/04/28 03:36:06;;;;;;;4.55;1.90;;;2.10;70.30;;;;;;5004502;28;20101;-66
2021/04/28 03:38:32;;;;;;;4.07;2.13;;;2.10;70.40;;;;;;4996998;28;20030;-65
2021/04/28 03:40:58;;;;;;;3.35;2.03;;;2.10;70.60;;;;;;5002502;28;20505;-66
2021/04/28 03:43:24;;;;;;;4.10;2.20;;;2.10;70.50;;;;;;4995337;28;20033;-66
2021/04/28 03:45:50;;;;;;;3.10;2.03;;;2.10;71.20;;;;;;5000593;28;20151;-65
2021/04/28 03:48:16;;;;;;;3.83;2.28;;;2.10;71.10;;;;;;4997833;28;20030;-66
2021/04/28 03:50:41;;;;;;;3.85;2.20;;;2.10;71.20;;;;;;4996466;28;20410;-66
2021/04/28 03:53:07;;;;;;;4.43;1.90;;;2.10;71.80;;;;;;4991222;28;20027;-66
2021/04/28 03:55:33;;;;;;;5.50;2.30;;;2.10;71.70;;;;;;4997088;28;20023;-65
2021/04/28 03:57:58;;;;;;;4.22;2.35;;;2.10;71.70;;;;;;5001496;28;20368;-66
2021/04/28 04:00:24;;;;;;;4.43;2.35;;;2.10;71.70;;;;;;4994781;28;20664;-66
2021/04/28 04:02:50;;;;;;;6.47;2.35;;;2.10;71.90;;;;;;4997230;28;20491;-66
2021/04/28 04:05:15;;;;;;;7.95;2.17;;;2.20;72.00;;;;;;4991584;28;20572;-66
2021/04/28 04:07:41;;;;;;;4.35;2.28;;;2.10;72.10;;;;;;4994586;28;20029;-66
2021/04/28 04:10:07;;;;;;;4.88;1.92;;;2.10;72.30;;;;;;4993051;28;20438;-66
2021/04/28 04:12:32;;;;;;;7.07;2.58;;;2.10;72.40;;;;;;4999830;28;20022;-66
2021/04/28 04:14:58;;;;;;;5.20;2.20;;;2.10;72.40;;;;;;4995914;28;20026;-66
2021/04/28 04:17:24;;;;;;;6.72;2.33;;;2.10;72.40;;;;;;4989600;28;20046;-65
2021/04/28 04:19:52;;;;;;;4.03;2.20;;;2.10;72.30;;;;;;4991531;28;20135;-66
2021/04/28 04:22:17;;;;;;;4.68;2.17;;;2.10;72.40;;;;;;4991801;28;20030;-61
2021/04/28 04:24:43;;;;;;;4.50;2.53;;;2.10;72.20;;;;;;4998328;28;20080;-61
2021/04/28 04:27:09;;;;;;;4.68;2.40;;;2.20;72.50;;;;;;4994963;28;20041;-60
2021/04/28 04:29:34;;;;;;;7.18;2.50;;;2.30;72.20;;;;;;4993423;28;20088;-61
2021/04/28 04:32:00;;;;;;;7.00;2.88;;;2.30;72.30;;;;;;4993422;28;20030;-61
2021/04/28 04:34:26;;;;;;;6.68;3.17;;;2.40;72.30;;;;;;4997045;28;20112;-61
2021/04/28 04:36:51;;;;;;;4.40;2.17;;;2.40;72.20;;;;;;4998287;28;20110;-61
2021/04/28 04:39:17;;;;;;;5.35;2.80;;;2.50;72.20;;;;;;4996786;28;20036;-61
2021/04/28 04:41:43;;;;;;;4.75;2.85;;;2.50;72.20;;;;;;4996872;28;20397;-61
2021/04/28 04:44:08;;;;;;;5.57;3.08;;;2.60;72.20;;;;;;4986088;28;20414;-63
2021/04/28 04:46:34;;;;;;;6.82;3.10;;;2.60;71.80;;;;;;4998609;28;20034;-61
2021/04/28 04:48:59;;;;;;;5.82;2.85;;;2.60;72.10;;;;;;5004161;28;20149;-61
2021/04/28 04:51:25;;;;;;;5.03;2.45;;;2.70;71.90;;;;;;4995040;28;20265;-60
2021/04/28 04:53:51;;;;;;;5.85;2.45;;;2.70;71.80;;;;;;4988913;28;20114;-61
2021/04/28 04:56:16;;;;;;;5.40;2.60;;;2.70;71.80;;;;;;4985456;28;20110;-61
2021/04/28 04:58:42;;;;;;;6.65;2.90;;;2.80;71.50;;;;;;4989414;28;20031;-61
2021/04/28 05:01:08;;;;;;;6.78;2.97;;;2.80;71.30;;;;;;4992696;28;20567;-61
2021/04/28 05:03:34;;;;;;;5.25;2.80;;;2.90;71.20;;;;;;4984627;28;20173;-61
2021/04/28 05:05:59;;;;;;;7.60;3.17;;;2.90;71.30;;;;;;4994464;28;20037;-61
2021/04/28 05:08:25;;;;;;;7.15;2.70;;;2.90;71.20;;;;;;5012362;28;20532;-61
2021/04/28 05:10:51;;;;;;;9.38;3.22;;;3.00;71.20;;;;;;5008294;28;20391;-62
2021/04/28 05:13:16;;;;;;;8.23;3.17;;;3.10;70.90;;;;;;5003896;28;20033;-61
2021/04/28 10:21:28;;;;;;;7.53;4.55;;;17.30;30.80;;;;;;5308289;23;20038;-68
2021/04/28 10:23:55;;;;;;;9.13;4.68;;;17.60;29.70;;;;;;4981271;28;20023;-69
2021/04/28 10:26:21;;;;;;;6.95;4.63;;;17.50;29.80;;;;;;4978950;28;20081;-69
2021/04/28 10:28:48;;;;;;;9.50;4.45;;;17.50;30.50;;;;;;4976252;28;20502;-69
2021/04/28 10:31:16;;;;;;;7.05;4.53;;;17.30;28.70;;;;;;4976449;28;20426;-69
2021/04/28 10:33:42;;;;;;;9.38;5.10;;;17.40;28.90;;;;;;4978109;28;20046;-70
2021/04/28 10:36:12;;;;;;;7.38;4.50;;;17.50;29.80;;;;;;4972736;28;20402;-70
2021/04/28 10:38:38;;;;;;;9.45;5.20;;;17.50;29.20;;;;;;4972839;28;20027;-70
2021/04/28 10:41:04;;;;;;;8.48;4.88;;;17.70;28.40;;;;;;4974418;28;20034;-70
2021/04/28 10:43:37;;;;;;;8.10;4.80;;;18.00;30.20;;;;;;4973870;28;20092;-69
2021/04/28 10:46:20;;;;;;;10.00;4.45;;;18.30;30.00;;;;;;4971462;28;20026;-69
2021/04/28 10:48:46;;;;;;;12.80;5.50;;;18.30;28.70;;;;;;4978023;28;20081;-70
2021/04/28 10:51:36;;;;;;;8.20;5.22;;;18.70;29.60;;;;;;4974280;28;20045;-70
2021/04/28 10:54:40;;;;;;;12.18;5.32;;;18.90;28.00;;;;;;4974579;28;20027;-69
2021/04/28 10:57:07;;;;;;;7.88;4.93;;;19.10;28.50;;;;;;4938556;29;20149;-70
2021/04/28 10:59:38;;;;;;;6.93;4.35;;;19.00;28.10;;;;;;4968281;28;20034;-69
2021/04/28 11:02:04;;;;;;;;;;;18.50;27.70;;;;;;4976293;28;20534;-69
2021/04/28 11:04:30;;;;;;;7.47;4.53;;;18.50;29.20;;;;;;4971924;28;20013;-70
2021/04/28 11:06:56;;;;;;;7.78;5.18;;;18.70;28.60;;;;;;4973928;28;20423;-70
2021/04/28 11:09:22;;;;;;;9.20;5.03;;;19.00;28.50;;;;;;4978688;28;20553;-70
2021/04/28 11:11:51;;;;;;;8.55;5.25;;;18.60;28.20;;;;;;4977656;28;20058;-69
2021/04/28 11:14:24;;;;;;;10.68;5.20;;;18.90;27.40;;;;;;4977805;28;20623;-69
2021/04/28 11:16:49;;;;;;;12.23;6.00;;;18.80;29.40;;;;;;4952806;28;20124;-68
2021/04/28 11:19:33;;;;;;;8.82;5.60;;;18.60;27.70;;;;;;4976050;28;20035;-70
2021/04/28 11:22:29;;;;;;;8.95;5.10;;;18.80;28.50;;;;;;4980201;28;20112;-70
2021/04/28 11:25:10;;;;;;;9.52;5.28;;;19.10;27.30;;;;;;4978586;28;21026;-70
2021/04/28 11:27:43;;;;;;;11.05;5.47;;;18.70;26.70;;;;;;4977813;28;20414;-70
2021/04/28 11:30:30;;;;;;;10.93;5.10;;;19.50;27.30;;;;;;4981066;28;20048;-69
2021/04/28 11:33:17;;;;;;;8.05;5.22;;;19.80;27.60;;;;;;4980551;28;20058;-70
2021/04/28 11:35:44;;;;;;;8.20;5.20;;;19.20;27.80;;;;;;4980376;28;20557;-70
2021/04/28 11:38:16;;;;;;;10.82;5.75;;;19.30;26.60;;;;;;4979130;28;20063;-70
2021/04/28 11:40:48;;;;;;;9.75;5.50;;;19.30;27.60;;;;;;4977160;28;20383;-70
2021/04/28 11:43:16;;;;;;;8.70;5.30;;;20.10;26.00;;;;;;4974487;28;20478;-70
2021/04/28 11:45:42;;;;;;;7.93;5.25;;;19.50;27.00;;;;;;4982149;28;20033;-70
2021/04/28 11:48:16;;;;;;;13.02;5.63;;;20.40;27.40;;;;;;4979733;28;20035;-70
2021/04/28 11:50:50;;;;;;;8.73;4.85;;;20.30;24.80;;;;;;4974572;28;20079;-70
2021/04/28 11:53:16;;;;;;;8.35;5.15;;;20.00;25.50;;;;;;4979772;28;20061;-70
2021/04/28 11:55:41;;;;;;;10.38;5.95;;;20.20;26.20;;;;;;4981602;28;20026;-69
2021/04/28 11:58:22;;;;;;;7.22;5.20;;;20.50;26.00;;;;;;4980418;28;20113;-70
2021/04/28 12:00:49;;;;;;;8.68;5.00;;;20.70;25.10;;;;;;4971159;28;20118;-71
2021/04/28 12:03:14;;;;;;;7.60;5.18;;;21.40;25.80;;;;;;4960603;28;21549;-71
2021/04/28 12:05:40;;;;;;;9.13;5.20;;;21.00;25.70;;;;;;4978886;28;20403;-70
2021/04/28 12:08:06;;;;;;;10.23;5.72;;;20.40;24.80;;;;;;4976757;28;20030;-71
2021/04/28 12:10:32;;;;;;;8.27;5.35;;;20.90;25.40;;;;;;4977197;28;20034;-70
2021/04/28 12:12:58;;;;;;;9.98;5.82;;;21.00;24.30;;;;;;4978366;28;20026;-71
2021/04/28 12:15:24;;;;;;;8.27;5.28;;;21.10;25.00;;;;;;4977729;28;20027;-72
2021/04/28 12:17:53;;;;;;;10.43;5.60;;;21.00;24.80;;;;;;4977843;28;20038;-72
2021/04/28 12:20:23;;;;;;;11.88;6.15;;;20.60;24.20;;;;;;4977500;28;20088;-73
2021/04/28 12:22:49;;;;;;;7.53;5.10;;;21.10;26.10;;;;;;4980627;28;20031;-72
2021/04/28 12:25:18;;;;;;;8.35;5.57;;;21.30;27.10;;;;;;4977704;28;20030;-72
2021/04/28 12:27:45;;;;;;;7.72;5.20;;;21.90;24.10;;;;;;4978917;28;20030;-73
2021/04/28 12:30:16;;;;;;;10.52;5.60;;;22.10;24.20;;;;;;4977777;28;20073;-72
2021/04/28 12:32:51;;;;;;;8.95;5.53;;;22.30;24.90;;;;;;4962479;28;20077;-72
2021/04/28 12:35:24;;;;;;;10.50;5.88;;;22.30;23.60;;;;;;4978909;28;20459;-75
2021/04/28 12:38:04;;;;;;;9.88;5.93;;;22.90;24.80;;;;;;4981229;28;20026;-73
2021/04/28 12:40:48;;;;;;;9.65;5.78;;;22.30;23.30;;;;;;4982010;28;21162;-71
2021/04/28 12:43:23;;;;;;;8.70;5.63;;;22.20;22.80;;;;;;4981393;28;20289;-72
2021/04/28 12:45:50;;;;;;;9.15;5.82;;;21.50;25.00;;;;;;4978139;28;20101;-72
2021/04/28 12:48:18;;;;;;;12.32;5.75;;;22.30;24.50;;;;;;4981877;28;20062;-73
2021/04/28 12:50:46;;;;;;;10.57;5.60;;;22.90;23.30;;;;;;4975848;28;20399;-73
2021/04/28 12:53:21;;;;;;;8.20;5.32;;;22.80;23.90;;;;;;4985013;28;20030;-72
2021/04/28 12:55:48;;;;;;;9.10;5.97;;;23.10;23.60;;;;;;4978239;28;20015;-72
2021/04/28 12:58:18;;;;;;;10.02;5.55;;;22.60;22.50;;;;;;4980117;28;20026;-73
2021/04/28 13:00:52;;;;;;;10.55;6.10;;;22.80;23.10;;;;;;4979208;28;20122;-73
2021/04/28 13:03:29;;;;;;;10.32;5.90;;;23.60;21.90;;;;;;4981043;28;20478;-73
2021/04/28 13:06:09;;;;;;;10.57;5.57;;;23.90;22.20;;;;;;4981535;28;20039;-72
2021/04/28 13:08:39;;;;;;;9.43;5.57;;;23.30;23.00;;;;;;4978881;28;20286;-73
2021/04/28 13:11:06;;;;;;;;;;;21.60;24.20;;;;;;4976944;28;20792;-71
2021/04/28 13:13:32;;;;;;;7.75;4.90;;;22.50;24.20;;;;;;4983878;28;20409;-73
2021/04/28 13:15:58;;;;;;;6.40;4.90;;;22.90;23.70;;;;;;4976373;28;20554;-74
2021/04/28 13:18:24;;;;;;;6.75;5.15;;;21.50;24.00;;;;;;4985578;28;20101;-74
2021/04/28 13:20:50;;;;;;;8.38;5.43;;;21.50;23.90;;;;;;4979821;28;20172;-72
2021/04/28 13:23:18;;;;;;;8.38;5.68;;;21.40;23.70;;;;;;4982838;28;20038;-73
2021/04/28 13:25:55;;;;;;;10.20;5.38;;;22.70;23.30;;;;;;4981844;28;20031;-73
2021/04/28 13:28:38;;;;;;;8.55;5.50;;;23.40;23.00;;;;;;4981705;28;20375;-72
2021/04/28 13:31:21;;;;;;;14.73;6.50;;;24.50;22.30;;;;;;4980548;28;20030;-73
2021/04/28 13:33:48;;;;;;;7.70;5.55;;;24.80;21.20;;;;;;4983246;28;20049;-74
2021/04/28 13:36:28;;;;;;;12.00;5.60;;;24.80;21.20;;;;;;4983756;28;20027;-72
2021/04/28 13:38:59;;;;;;;8.10;4.78;;;24.50;21.40;;;;;;4965539;28;20030;-73
2021/04/28 13:41:26;;;;;;;6.88;4.88;;;24.20;22.40;;;;;;4978437;28;20621;-72
2021/04/28 13:43:52;;;;;;;12.20;5.68;;;25.50;20.60;;;;;;4981373;28;21038;-72
2021/04/28 13:46:18;;;;;;;8.07;5.30;;;24.90;21.60;;;;;;4979915;28;20034;-73
2021/04/28 13:48:44;;;;;;;7.82;4.63;;;25.20;20.50;;;;;;4974294;28;20053;-74
2021/04/28 13:51:10;;;;;;;8.52;5.40;;;25.10;21.20;;;;;;4975417;28;20522;-75
2021/04/28 13:53:36;;;;;;;6.90;4.95;;;25.30;20.10;;;;;;4982430;28;20032;-72
2021/04/28 13:56:04;;;;;;;12.68;6.13;;;25.10;21.40;;;;;;4978448;28;20450;-72
2021/04/28 13:58:30;;;;;;;9.25;5.78;;;24.10;21.20;;;;;;4982867;28;20085;-73
2021/04/28 14:00:55;;;;;;;14.90;5.47;;;24.50;20.70;;;;;;4979595;28;20434;-72
2021/04/28 14:03:21;;;;;;;7.72;5.10;;;24.40;21.20;;;;;;4983112;28;20113;-73
2021/04/28 14:05:47;;;;;;;8.05;4.63;;;24.20;21.10;;;;;;4982222;28;20034;-73
2021/04/28 14:08:14;;;;;;;10.15;5.20;;;24.70;22.30;;;;;;4984976;28;20022;-73
2021/04/28 14:10:39;;;;;;;9.68;5.07;;;23.60;23.10;;;;;;4983023;28;20101;-73
2021/04/28 14:13:05;;;;;;;8.27;5.35;;;23.00;22.80;;;;;;4980481;28;20502;-72
2021/04/28 14:15:30;;;;;;;10.45;5.35;;;22.10;23.80;;;;;;4983397;28;20025;-72
2021/04/28 14:17:56;;;;;;;9.25;4.93;;;23.00;24.00;;;;;;4983463;28;20023;-73
2021/04/28 14:20:22;;;;;;;8.05;4.88;;;24.10;22.60;;;;;;4980364;28;20026;-74
2021/04/28 14:22:47;;;;;;;6.82;4.25;;;25.50;20.90;;;;;;4981651;28;20097;-73
2021/04/28 14:25:13;;;;;;;6.43;4.22;;;24.00;20.70;;;;;;4978347;28;20045;-73
2021/04/28 14:27:39;;;;;;;6.43;4.18;;;24.80;20.90;;;;;;4982411;28;20110;-71
2021/04/28 14:30:06;;;;;;;8.00;4.50;;;24.10;21.30;;;;;;4981074;28;20492;-74
2021/04/28 14:32:32;;;;;;;8.43;5.25;;;25.00;21.70;;;;;;4981359;28;20034;-73
2021/04/28 14:34:58;;;;;;;6.90;4.63;;;25.40;20.50;;;;;;4964928;28;20023;-72
2021/04/28 14:37:24;;;;;;;8.63;4.68;;;25.00;22.10;;;;;;4984444;28;20045;-71
2021/04/28 14:39:50;;;;;;;8.77;4.65;;;25.50;20.50;;;;;;4982466;28;20026;-71
2021/04/28 14:42:15;;;;;;;9.50;4.82;;;25.50;21.10;;;;;;4982242;28;20438;-72
2021/04/28 14:44:41;;;;;;;8.32;4.80;;;24.10;21.20;;;;;;4982114;28;20157;-71
2021/04/28 14:47:07;;;;;;;10.35;4.20;;;25.50;20.80;;;;;;4985144;28;20027;-70
2021/04/28 14:49:32;;;;;;;8.93;4.50;;;24.50;22.00;;;;;;4984017;28;20030;-71
2021/04/28 14:51:58;;;;;;;7.05;4.20;;;25.20;21.70;;;;;;4981631;28;20054;-72
2021/04/28 14:54:23;;;;;;;9.98;4.93;;;26.40;19.50;;;;;;4982499;28;20117;-71
2021/04/28 14:56:49;;;;;;;7.13;4.82;;;26.30;20.00;;;;;;4982374;28;20109;-71
2021/04/28 14:59:15;;;;;;;8.20;4.97;;;25.90;20.10;;;;;;4983595;28;20038;-73
2021/04/28 15:01:40;;;;;;;6.18;4.20;;;24.60;21.30;;;;;;4983152;28;20022;-72
2021/04/28 15:04:06;;;;;;;10.88;4.78;;;24.70;20.30;;;;;;4978339;28;20497;-71
2021/04/28 15:06:31;;;;;;;9.02;4.53;;;24.40;21.00;;;;;;4981017;28;20030;-71
2021/04/28 15:08:57;;;;;;;6.05;4.13;;;23.50;21.80;;;;;;4978876;28;20030;-71
2021/04/28 15:11:23;;;;;;;6.85;5.25;;;23.90;21.60;;;;;;4983638;28;20034;-71
2021/04/28 15:13:48;;;;;;;8.45;4.82;;;24.20;20.40;;;;;;4983984;28;20027;-71
2021/04/28 15:16:14;;;;;;;9.25;5.35;;;23.80;21.40;;;;;;4983129;28;20058;-73
2021/04/28 15:18:39;;;;;;;7.90;5.07;;;23.60;22.50;;;;;;4982145;28;20391;-72
2021/04/28 15:21:05;;;;;;;7.88;5.22;;;22.50;22.90;;;;;;4983997;28;20080;-70
2021/04/28 15:23:32;;;;;;;11.40;5.63;;;22.50;23.10;;;;;;4980396;28;20395;-71
2021/04/28 15:25:58;;;;;;;13.25;5.78;;;22.90;23.00;;;;;;4981589;28;20038;-72
2021/04/28 15:28:24;;;;;;;12.95;5.70;;;23.20;23.40;;;;;;4979920;28;20026;-74
2021/04/28 15:30:50;;;;;;;9.70;5.97;;;23.60;22.30;;;;;;4981523;28;20030;-71
2021/04/28 15:33:20;;;;;;;11.50;6.43;;;23.00;21.70;;;;;;4980008;28;20434;-71
2021/04/28 15:35:47;;;;;;;12.07;6.30;;;22.90;22.70;;;;;;4983863;28;20411;-70
2021/04/28 15:38:18;;;;;;;9.50;6.60;;;22.30;22.80;;;;;;4983998;28;20031;-72
2021/04/28 15:40:44;;;;;;;10.68;6.43;;;22.00;23.40;;;;;;4979721;28;20038;-71
2021/04/28 15:43:11;;;;;;;11.80;6.18;;;21.80;24.40;;;;;;4981046;28;20029;-70
2021/04/28 15:45:40;;;;;;;12.40;6.57;;;22.20;25.50;;;;;;4981319;28;20057;-70
2021/04/28 15:48:07;;;;;;;13.55;7.20;;;22.70;23.40;;;;;;4984470;28;20018;-71
2021/04/28 15:50:33;;;;;;;15.52;7.43;;;22.80;22.50;;;;;;4978138;28;20027;-71
2021/04/28 15:52:59;;;;;;;14.40;7.40;;;21.70;24.20;;;;;;4979699;28;20483;-71
2021/04/28 15:55:25;;;;;;;12.48;7.07;;;21.90;24.40;;;;;;4982358;28;20029;-71
2021/04/28 15:57:50;;;;;;;12.18;7.45;;;21.30;24.40;;;;;;4983420;28;20093;-70
2021/04/28 16:00:16;;;;;;;11.50;6.40;;;21.40;25.20;;;;;;4976174;28;20061;-72
2021/04/28 16:02:42;;;;;;;12.10;6.40;;;20.60;25.30;;;;;;4981742;28;20037;-70
2021/04/28 16:05:08;;;;;;;11.80;7.32;;;20.00;26.50;;;;;;4983829;28;20402;-71
2021/04/28 16:07:34;;;;;;;11.43;7.20;;;19.50;26.80;;;;;;4979229;28;20080;-72
2021/04/28 16:10:00;;;;;;;13.38;6.60;;;19.50;27.50;;;;;;4978381;28;20076;-70
2021/04/28 16:12:25;;;;;;;8.90;6.18;;;19.40;27.90;;;;;;4965387;28;20335;-70
2021/04/28 16:14:51;;;;;;;12.23;7.00;;;19.30;28.30;;;;;;4981933;28;20286;-70
2021/04/28 16:17:17;;;;;;;12.57;7.38;;;19.00;28.30;;;;;;4977536;28;20046;-70
2021/04/28 16:19:44;;;;;;;11.13;6.57;;;18.60;28.00;;;;;;4981684;28;20030;-71
2021/04/28 16:22:10;;;;;;;12.35;7.00;;;19.00;28.70;;;;;;4980432;28;20409;-71
2021/04/28 16:24:35;;;;;;;11.25;7.22;;;18.70;28.40;;;;;;4965849;28;20026;-72
2021/04/28 16:27:01;;;;;;;11.88;6.63;;;18.90;28.70;;;;;;4977032;28;20207;-73
2021/04/28 16:29:27;;;;;;;12.20;7.28;;;18.70;27.90;;;;;;4981785;28;20046;-74
2021/04/28 16:31:52;;;;;;;13.15;8.23;;;18.70;28.60;;;;;;4978905;28;20018;-70
2021/04/28 16:34:18;;;;;;;12.10;6.78;;;18.80;28.50;;;;;;4984598;28;20506;-70
2021/04/28 16:36:44;;;;;;;12.23;8.30;;;18.90;28.60;;;;;;4984603;28;20026;-72
2021/04/28 16:39:11;;;;;;;12.13;7.75;;;19.00;29.70;;;;;;4984018;28;20034;-69
2021/04/28 16:41:38;;;;;;;12.23;7.53;;;18.80;28.40;;;;;;4978712;28;20510;-70
2021/04/28 16:44:04;;;;;;;12.77;7.75;;;18.80;29.00;;;;;;4981196;28;20034;-70
2021/04/28 16:46:30;;;;;;;15.77;8.40;;;18.80;28.50;;;;;;4966965;28;20022;-70
2021/04/28 16:48:56;;;;;;;15.52;8.60;;;18.80;28.30;;;;;;4981404;28;20041;-72
2021/04/28 16:51:21;;;;;;;15.93;8.40;;;18.80;28.30;;;;;;4980483;28;20058;-73
2021/04/28 16:53:47;;;;;;;15.52;9.30;;;18.50;29.80;;;;;;4981857;28;20390;-71
2021/04/28 16:56:12;;;;;;;12.98;7.90;;;18.40;28.30;;;;;;4980937;28;20101;-70
2021/04/28 16:58:38;;;;;;;16.88;8.85;;;18.20;28.80;;;;;;4966192;28;20029;-70
2021/04/28 17:01:04;;;;;;;14.98;9.20;;;18.30;29.00;;;;;;4978548;28;20483;-69
2021/04/28 17:03:29;;;;;;;19.73;9.23;;;18.10;28.60;;;;;;4980725;28;20031;-72
2021/04/28 17:05:55;;;;;;;15.63;8.98;;;18.10;28.10;;;;;;4979528;28;20042;-70
2021/04/28 17:08:20;;;;;;;15.25;8.18;;;18.20;29.40;;;;;;4979720;28;20031;-69
2021/04/28 17:10:46;;;;;;;18.75;9.13;;;18.20;30.50;;;;;;4978091;28;20050;-70
2021/04/28 17:13:12;;;;;;;17.10;8.63;;;18.10;29.40;;;;;;4975721;28;20165;-72
2021/04/28 17:15:38;;;;;;;12.15;8.10;;;18.10;28.80;;;;;;4974830;28;20094;-69
2021/04/28 17:18:03;;;;;;;20.00;9.05;;;18.10;29.00;;;;;;4981727;28;20030;-70
2021/04/28 17:20:29;;;;;;;14.52;8.45;;;18.10;30.00;;;;;;4976324;28;20189;-71
2021/04/28 17:22:54;;;;;;;19.02;8.73;;;17.80;28.60;;;;;;4982433;28;20045;-69
2021/04/28 17:25:20;;;;;;;15.95;9.02;;;17.80;29.80;;;;;;4981124;28;20061;-69
2021/04/28 17:27:46;;;;;;;17.48;8.60;;;17.60;31.20;;;;;;4985143;28;20033;-72
2021/04/28 17:30:12;;;;;;;17.27;8.57;;;17.60;31.10;;;;;;4981646;28;20042;-70
2021/04/28 17:32:38;;;;;;;13.95;7.55;;;17.60;29.70;;;;;;4983411;28;20038;-72
2021/04/28 17:35:05;;;;;;;15.07;8.10;;;17.60;31.80;;;;;;4984296;28;20042;-71
2021/04/28 17:37:31;;;;;;;13.93;7.65;;;17.50;30.00;;;;;;4986316;28;20033;-67
2021/04/28 17:39:57;;;;;;;14.60;6.65;;;17.40;30.50;;;;;;4983407;28;20499;-67
2021/04/28 17:42:22;;;;;;;11.65;7.07;;;17.30;31.30;;;;;;4981820;28;20046;-67
2021/04/28 17:44:48;;;;;;;11.40;7.03;;;17.20;31.90;;;;;;4979949;28;20123;-67
2021/04/28 17:47:14;;;;;;;13.48;7.93;;;17.10;33.10;;;;;;4982309;28;20026;-67
2021/04/28 17:49:40;;;;;;;14.90;7.00;;;17.00;31.60;;;;;;4984480;28;20045;-67
2021/04/28 17:52:07;;;;;;;13.75;7.18;;;17.00;32.60;;;;;;4985278;28;20030;-66
2021/04/28 17:54:33;;;;;;;15.23;7.57;;;17.00;33.20;;;;;;4982346;28;20022;-67
2021/04/28 17:56:58;;;;;;;14.60;7.47;;;16.80;32.20;;;;;;4983023;28;20282;-66